createdAt,value
2023-03-05T00:01:33.965Z,70.86
2023-03-05T00:04:03.475Z,70.44
2023-03-05T00:06:33.910Z,71.08
2023-03-05T00:09:03.389Z,71.10
2023-03-05T00:11:33.539Z,72.02
2023-03-05T00:14:04.088Z,72.05
2023-03-05T00:16:32.522Z,71.66
2023-03-05T00:19:02.439Z,72.40
2023-03-05T00:21:34.058Z,72.40
2023-03-05T00:24:06.160Z,72.01
2023-03-05T00:26:40.057Z,71.70
2023-03-05T00:29:10.578Z,72.61
2023-03-05T00:31:38.736Z,72.18
2023-03-05T00:34:10.449Z,70.96
2023-03-05T00:36:41.889Z,70.29
2023-03-05T00:39:09.894Z,70.95
2023-03-05T00:41:40.122Z,70.31
2023-03-05T00:44:08.469Z,70.46
2023-03-05T00:46:36.993Z,71.02
2023-03-05T00:49:05.418Z,71.04
2023-03-05T00:51:34.341Z,71.33
2023-03-05T00:54:02.238Z,70.60
2023-03-05T00:56:30.096Z,71.42
2023-03-05T00:58:59.424Z,70.96
2023-03-05T01:01:28.516Z,71.10
2023-03-05T01:03:58.147Z,70.76
2023-03-05T01:06:26.550Z,70.52
2023-03-05T01:08:54.538Z,70.89
2023-03-05T01:11:22.456Z,71.24
2023-03-05T01:13:50.454Z,71.71
2023-03-05T01:16:19.852Z,70.87
2023-03-05T01:18:47.817Z,71.49
2023-03-05T01:21:15.658Z,71.59
2023-03-05T01:23:43.625Z,72.26
2023-03-05T01:26:11.551Z,71.83
2023-03-05T01:28:39.930Z,71.61
2023-03-05T01:31:11.915Z,71.77
2023-03-05T01:33:41.301Z,71.36
2023-03-05T01:36:14.715Z,71.56
2023-03-05T01:38:43.347Z,71.25
2023-03-05T01:41:13.185Z,71.44
2023-03-05T01:43:42.639Z,70.44
2023-03-05T01:46:38.031Z,72.27
2023-03-05T01:49:20.433Z,71.31
2023-03-05T01:52:05.131Z,70.12
2023-03-05T01:54:39.859Z,71.90
2023-03-05T01:57:13.888Z,70.51
2023-03-05T01:59:46.724Z,70.18
2023-03-05T02:02:15.286Z,70.93
2023-03-05T02:04:51.712Z,70.86
2023-03-05T02:07:20.464Z,70.05
2023-03-05T02:09:48.676Z,71.01
2023-03-05T02:12:17.349Z,72.50
2023-03-05T02:14:58.395Z,70.92
2023-03-05T02:17:29.426Z,72.85
2023-03-05T02:20:08.580Z,71.47
2023-03-05T02:22:37.890Z,72.46
2023-03-05T02:25:19.694Z,74.63
2023-03-05T02:27:56.807Z,73.33
2023-03-05T02:30:25.041Z,72.64
2023-03-05T02:32:53.155Z,71.71
2023-03-05T02:35:21.931Z,73.94
2023-03-05T02:37:51.334Z,73.13
2023-03-05T02:40:20.794Z,72.49
2023-03-05T02:42:49.087Z,74.42
2023-03-05T02:45:18.646Z,75.54
2023-03-05T02:47:46.743Z,75.14
2023-03-05T02:50:14.929Z,75.15
2023-03-05T02:52:43.019Z,75.97
2023-03-05T02:55:12.511Z,76.72
2023-03-05T02:57:40.653Z,76.21
2023-03-05T03:00:10.714Z,76.77
2023-03-05T03:02:38.906Z,76.58
2023-03-05T03:05:08.305Z,77.23
2023-03-05T03:07:36.664Z,74.82
2023-03-05T03:10:04.940Z,76.64
2023-03-05T03:12:38.569Z,75.22
2023-03-05T03:15:08.473Z,77.06
2023-03-05T03:17:37.720Z,77.83
2023-03-05T03:20:08.575Z,77.44
2023-03-05T03:22:36.652Z,77.97
2023-03-05T03:25:06.807Z,78.27
2023-03-05T03:27:36.212Z,77.73
2023-03-05T03:30:05.340Z,77.13
2023-03-05T03:32:34.716Z,77.26
2023-03-05T03:35:03.374Z,77.56
2023-03-05T03:37:31.824Z,76.20
2023-03-05T03:39:59.849Z,76.11
2023-03-05T03:42:27.866Z,75.75
2023-03-05T03:44:57.256Z,75.49
2023-03-05T03:47:25.165Z,74.58
2023-03-05T03:49:55.435Z,73.67
2023-03-05T03:52:24.047Z,74.69
2023-03-05T03:54:53.145Z,75.97
2023-03-05T03:57:21.023Z,75.50
2023-03-05T03:59:50.383Z,75.05
2023-03-05T04:02:19.790Z,74.71
2023-03-05T04:04:48.021Z,75.50
2023-03-05T04:07:16.148Z,75.57
2023-03-05T04:09:44.152Z,75.98
2023-03-05T04:12:17.598Z,75.29
2023-03-05T04:14:46.615Z,77.86
2023-03-05T04:17:15.363Z,77.70
2023-03-05T04:19:45.336Z,78.48
2023-03-05T04:22:15.711Z,77.84
2023-03-05T04:24:44.230Z,77.89
2023-03-05T04:27:12.863Z,78.57
2023-03-05T04:29:40.920Z,78.74
2023-03-05T04:32:09.193Z,77.99
2023-03-05T04:34:38.856Z,78.16
2023-03-05T04:37:08.077Z,78.10
2023-03-05T04:39:35.913Z,79.42
2023-03-05T04:42:03.890Z,78.51
2023-03-05T04:44:32.045Z,78.28
2023-03-05T04:46:59.869Z,79.27
2023-03-05T04:49:27.716Z,78.85
2023-03-05T04:51:57.450Z,78.04
2023-03-05T04:54:26.775Z,77.20
2023-03-05T04:56:54.705Z,77.28
2023-03-05T04:59:22.668Z,77.60
2023-03-05T05:01:50.726Z,77.21
2023-03-05T05:04:18.638Z,76.57
2023-03-05T05:06:46.606Z,76.40
2023-03-05T05:09:14.876Z,76.49
2023-03-05T05:11:44.114Z,76.04
2023-03-05T05:14:12.023Z,76.06
2023-03-05T05:16:39.912Z,75.84
2023-03-05T05:19:08.500Z,75.10
2023-03-05T05:21:36.584Z,75.44
2023-03-05T05:24:04.982Z,74.99
2023-03-05T05:26:33.860Z,75.06
2023-03-05T05:29:03.072Z,75.69
2023-03-05T05:31:30.909Z,75.85
2023-03-05T05:33:58.753Z,74.38
2023-03-05T05:36:26.630Z,75.57
2023-03-05T05:38:55.089Z,76.36
2023-03-05T05:41:23.055Z,75.61
2023-03-05T05:43:50.978Z,75.36
2023-03-05T05:46:21.851Z,76.28
2023-03-05T05:48:50.242Z,75.76
2023-03-05T05:51:21.153Z,76.72
2023-03-05T05:53:50.306Z,76.02
2023-03-05T05:56:19.687Z,76.30
2023-03-05T05:58:49.382Z,76.47
2023-03-05T06:01:23.181Z,75.01
2023-03-05T06:03:51.600Z,74.89
2023-03-05T06:06:24.033Z,75.64
2023-03-05T06:08:52.737Z,75.34
2023-03-05T06:11:21.200Z,75.46
2023-03-05T06:13:50.168Z,74.34
2023-03-05T06:16:23.922Z,74.17
2023-03-05T06:18:52.840Z,75.24
2023-03-05T06:21:22.650Z,75.61
2023-03-05T06:23:52.049Z,75.79
2023-03-05T06:26:23.176Z,76.65
2023-03-05T06:28:51.711Z,75.21
2023-03-05T06:31:25.516Z,76.19
2023-03-05T06:33:55.676Z,76.14
2023-03-05T06:36:25.852Z,75.65
2023-03-05T06:38:54.937Z,75.59
2023-03-05T06:41:25.242Z,75.39
2023-03-05T06:43:53.189Z,74.58
2023-03-05T06:46:25.764Z,75.15
2023-03-05T06:48:58.029Z,74.65
2023-03-05T06:51:29.114Z,75.64
2023-03-05T06:54:01.576Z,75.38
2023-03-05T06:56:29.794Z,74.35
2023-03-05T06:58:57.851Z,74.74
2023-03-05T07:01:27.232Z,75.22
2023-03-05T07:03:58.921Z,75.88
2023-03-05T07:06:28.478Z,75.89
2023-03-05T07:08:56.856Z,75.02
2023-03-05T07:11:26.000Z,75.12
2023-03-05T07:13:54.064Z,74.05
2023-03-05T07:16:27.076Z,74.75
2023-03-05T07:18:55.926Z,75.04
2023-03-05T07:21:26.937Z,75.18
2023-03-05T07:23:56.389Z,74.21
2023-03-05T07:26:25.450Z,73.99
2023-03-05T07:28:54.095Z,74.58
2023-03-05T07:31:27.246Z,75.72
2023-03-05T07:33:56.813Z,74.43
2023-03-05T07:36:25.081Z,74.97
2023-03-05T07:38:53.065Z,73.83
2023-03-05T07:41:23.471Z,73.13
2023-03-05T07:43:53.606Z,73.53
2023-03-05T07:46:25.017Z,73.47
2023-03-05T07:48:54.679Z,73.26
2023-03-05T07:51:26.258Z,73.06
2023-03-05T07:53:57.477Z,73.14
2023-03-05T07:56:29.843Z,73.44
2023-03-05T07:58:57.815Z,73.88
2023-03-05T08:01:25.980Z,73.13
2023-03-05T08:03:54.040Z,72.69
2023-03-05T08:06:23.609Z,71.89
2023-03-05T08:08:51.696Z,72.60
2023-03-05T08:11:19.785Z,72.58
2023-03-05T08:13:47.711Z,72.15
2023-03-05T08:16:19.244Z,71.85
2023-03-05T08:18:48.422Z,70.90
2023-03-05T08:21:19.265Z,69.49
2023-03-05T08:23:49.164Z,70.55
2023-03-05T08:26:21.014Z,70.53
2023-03-05T08:28:49.307Z,69.95
2023-03-05T08:31:21.281Z,69.41
2023-03-05T08:33:49.585Z,69.24
2023-03-05T08:36:17.837Z,69.12
2023-03-05T08:38:46.845Z,69.07
2023-03-05T08:41:18.904Z,68.52
2023-03-05T08:43:46.890Z,65.50
2023-03-05T08:46:17.087Z,64.62
2023-03-05T08:48:45.470Z,62.47
2023-03-05T08:51:16.309Z,59.55
2023-03-05T08:53:46.142Z,59.30
2023-03-05T08:56:18.421Z,58.67
2023-03-05T08:58:48.169Z,55.76
2023-03-05T09:01:18.481Z,55.63
2023-03-05T09:03:46.344Z,54.21
2023-03-05T09:06:14.285Z,52.61
2023-03-05T09:08:42.583Z,52.78
2023-03-05T09:11:13.763Z,54.08
2023-03-05T09:13:43.678Z,52.41
2023-03-05T09:16:15.462Z,52.43
2023-03-05T09:18:44.218Z,51.59
2023-03-05T09:21:15.824Z,49.84
2023-03-05T09:23:47.230Z,50.01
2023-03-05T09:26:19.384Z,48.40
2023-03-05T09:28:49.704Z,48.29
2023-03-05T09:31:18.593Z,50.35
2023-03-05T09:33:48.840Z,48.97
2023-03-05T09:36:21.715Z,48.00
2023-03-05T09:38:50.146Z,47.46
2023-03-05T09:41:37.043Z,47.86
2023-03-05T09:44:23.824Z,47.00
2023-03-05T09:46:56.010Z,45.63
2023-03-05T09:49:40.735Z,47.10
2023-03-05T09:52:19.460Z,47.01
2023-03-05T09:54:54.022Z,43.40
2023-03-05T09:57:29.908Z,45.14
2023-03-05T10:00:07.934Z,42.76
2023-03-05T10:02:45.373Z,42.98
2023-03-05T10:05:25.604Z,43.07
2023-03-05T10:07:59.511Z,42.03
2023-03-05T10:10:37.181Z,42.71
2023-03-05T10:13:17.840Z,44.37
2023-03-05T10:16:01.313Z,44.80
2023-03-05T10:18:39.433Z,44.31
2023-03-05T10:21:19.038Z,43.24
2023-03-05T10:24:10.461Z,44.85
2023-03-05T10:26:58.639Z,44.37
2023-03-05T10:29:54.445Z,45.01
2023-03-05T10:32:41.853Z,45.36
2023-03-05T10:35:53.814Z,43.61
2023-03-05T10:38:52.885Z,43.34
2023-03-05T10:41:34.329Z,45.08
2023-03-05T10:44:16.653Z,45.23
2023-03-05T10:46:47.652Z,45.80
2023-03-05T10:49:22.316Z,45.46
2023-03-05T10:51:57.085Z,43.91
2023-03-05T10:54:30.091Z,44.61
2023-03-05T10:57:14.772Z,44.05
2023-03-05T10:59:51.467Z,44.65
2023-03-05T11:02:22.159Z,45.17
2023-03-05T11:04:54.441Z,47.51
2023-03-05T11:07:41.564Z,47.99
2023-03-05T11:10:21.414Z,48.35
2023-03-05T11:12:52.384Z,48.78
2023-03-05T11:15:34.147Z,49.70
2023-03-05T11:18:24.233Z,50.79
2023-03-05T11:21:07.553Z,50.63
2023-03-05T11:23:35.468Z,50.01
2023-03-05T11:26:06.383Z,48.81
2023-03-05T11:28:37.865Z,48.81
2023-03-05T11:31:23.375Z,48.60
2023-03-05T11:34:35.287Z,47.80
2023-03-05T11:37:08.158Z,46.77
2023-03-05T11:39:41.338Z,45.27
2023-03-05T11:42:16.548Z,44.36
2023-03-05T11:44:51.268Z,43.65
2023-03-05T11:47:31.710Z,43.18
2023-03-05T11:50:23.917Z,44.54
2023-03-05T11:52:58.800Z,45.68
2023-03-05T11:55:31.782Z,43.98
2023-03-05T11:58:19.843Z,43.96
2023-03-05T12:00:49.327Z,44.91
2023-03-05T12:03:31.542Z,43.36
2023-03-05T12:06:10.370Z,44.27
2023-03-05T12:08:46.542Z,42.54
2023-03-05T12:11:21.285Z,44.19
2023-03-05T12:13:55.596Z,45.91
2023-03-05T12:16:39.242Z,48.22
2023-03-05T12:19:35.774Z,49.35
2023-03-05T12:22:06.973Z,50.21
2023-03-05T12:24:43.129Z,51.31
2023-03-05T12:27:16.156Z,50.95
2023-03-05T12:29:50.805Z,50.96
2023-03-05T12:32:54.018Z,49.36
2023-03-05T12:35:29.551Z,48.35
2023-03-05T12:38:29.169Z,47.85
2023-03-05T12:41:44.391Z,46.37
2023-03-05T12:44:23.671Z,46.75
2023-03-05T12:47:23.542Z,48.78
2023-03-05T12:49:51.984Z,48.92
2023-03-05T12:52:33.204Z,50.16
2023-03-05T12:55:25.186Z,48.84
2023-03-05T12:58:01.492Z,52.53
2023-03-05T13:00:39.127Z,57.34
2023-03-05T13:03:16.988Z,60.27
2023-03-05T13:05:55.255Z,61.79
2023-03-05T13:08:25.915Z,62.03
2023-03-05T13:10:56.383Z,64.60
2023-03-05T13:13:28.585Z,66.85
2023-03-05T13:15:58.334Z,66.53
2023-03-05T13:18:32.662Z,65.55
2023-03-05T13:21:06.664Z,66.85
2023-03-05T13:23:37.629Z,65.08
2023-03-05T13:26:15.520Z,63.34
2023-03-05T13:28:45.962Z,62.73
2023-03-05T13:31:17.687Z,62.88
2023-03-05T13:33:54.330Z,60.87
2023-03-05T13:36:25.841Z,61.54
2023-03-05T13:38:55.031Z,65.02
2023-03-05T13:41:30.434Z,62.87
2023-03-05T13:44:03.153Z,60.91
2023-03-05T13:46:35.322Z,61.49
2023-03-05T13:49:22.541Z,61.09
2023-03-05T13:51:53.346Z,59.88
2023-03-05T13:54:23.603Z,59.21
2023-03-05T13:56:56.907Z,58.78
2023-03-05T13:59:29.541Z,56.88
2023-03-05T14:02:06.216Z,55.54
2023-03-05T14:04:40.709Z,55.06
2023-03-05T14:07:30.827Z,55.08
2023-03-05T14:09:59.900Z,53.36
2023-03-05T14:12:35.586Z,54.24
2023-03-05T14:15:26.221Z,53.64
2023-03-05T14:18:09.632Z,53.38
2023-03-05T14:20:37.913Z,54.25
2023-03-05T14:23:36.816Z,55.59
2023-03-05T14:26:21.950Z,55.97
2023-03-05T14:28:55.485Z,54.41
2023-03-05T14:31:27.080Z,54.55
2023-03-05T14:34:02.108Z,51.88
2023-03-05T14:36:32.209Z,52.62
2023-03-05T14:39:03.049Z,52.02
2023-03-05T14:41:39.838Z,50.70
2023-03-05T14:44:13.416Z,49.21
2023-03-05T14:46:43.294Z,49.98
2023-03-05T14:49:11.258Z,48.92
2023-03-05T14:51:45.196Z,50.29
2023-03-05T14:54:23.127Z,50.43
2023-03-05T14:56:51.677Z,51.28
2023-03-05T14:59:21.235Z,50.40
2023-03-05T15:01:58.221Z,49.98
2023-03-05T15:04:26.129Z,49.52
2023-03-05T15:06:54.003Z,49.66
2023-03-05T15:09:22.475Z,48.85
2023-03-05T15:11:51.449Z,49.17
2023-03-05T15:14:19.279Z,48.34
2023-03-05T15:16:48.755Z,49.38
2023-03-05T15:19:18.126Z,48.47
2023-03-05T15:21:46.048Z,48.35
2023-03-05T15:24:14.821Z,49.08
2023-03-05T15:26:42.741Z,50.13
2023-03-05T15:29:10.705Z,50.20
2023-03-05T15:31:40.594Z,51.48
2023-03-05T15:34:08.573Z,51.84
2023-03-05T15:36:37.834Z,50.82
2023-03-05T15:39:05.586Z,51.27
2023-03-05T15:41:33.492Z,51.50
2023-03-05T15:44:01.402Z,51.60
2023-03-05T15:46:29.441Z,51.03
2023-03-05T15:48:57.380Z,51.08
2023-03-05T15:51:25.204Z,51.34
2023-03-05T15:53:54.496Z,50.90
2023-03-05T15:56:22.384Z,49.80
2023-03-05T15:58:51.141Z,50.25
2023-03-05T16:01:20.805Z,50.92
2023-03-05T16:03:49.078Z,50.94
2023-03-05T16:06:20.562Z,50.66
2023-03-05T16:08:55.532Z,51.20
2023-03-05T16:11:25.217Z,51.87
2023-03-05T16:13:53.267Z,52.57
2023-03-05T16:16:23.654Z,53.07
2023-03-05T16:18:53.453Z,53.44
2023-03-05T16:21:21.625Z,53.21
2023-03-05T16:23:49.877Z,53.34
2023-03-05T16:26:17.883Z,51.13
2023-03-05T16:28:49.091Z,50.37
2023-03-05T16:31:17.152Z,51.63
2023-03-05T16:33:44.960Z,51.78
2023-03-05T16:36:24.216Z,51.98
2023-03-05T16:38:57.071Z,52.43
2023-03-05T16:41:26.355Z,52.06
2023-03-05T16:43:57.676Z,52.35
2023-03-05T16:46:26.879Z,52.58
2023-03-05T16:48:55.306Z,53.30
2023-03-05T16:51:23.996Z,53.60
2023-03-05T16:53:52.392Z,53.21
2023-03-05T16:56:20.778Z,53.88
2023-03-05T16:58:50.487Z,52.07
2023-03-05T17:01:22.032Z,53.10
2023-03-05T17:03:52.431Z,52.70
2023-03-05T17:06:24.057Z,53.11
2023-03-05T17:08:53.023Z,53.46
2023-03-05T17:11:22.509Z,52.82
2023-03-05T17:13:50.446Z,52.80
2023-03-05T17:16:21.531Z,52.91
2023-03-05T17:18:50.201Z,53.41
2023-03-05T17:21:18.377Z,53.92
2023-03-05T17:23:46.296Z,53.35
2023-03-05T17:26:17.575Z,51.94
2023-03-05T17:28:46.277Z,53.68
2023-03-05T17:31:15.498Z,53.22
2023-03-05T17:33:44.889Z,53.21
2023-03-05T17:36:18.371Z,53.54
2023-03-05T17:38:47.654Z,52.46
2023-03-05T17:41:17.292Z,52.75
2023-03-05T17:43:46.068Z,53.27
2023-03-05T17:46:14.792Z,53.53
2023-03-05T17:48:44.615Z,53.50
2023-03-05T17:51:16.650Z,52.42
2023-03-05T17:53:45.970Z,53.27
2023-03-05T17:56:16.969Z,54.65
2023-03-05T17:58:44.932Z,54.44
2023-03-05T18:01:12.767Z,56.92
2023-03-05T18:03:40.747Z,55.23
2023-03-05T18:06:10.069Z,53.82
2023-03-05T18:08:37.917Z,54.66
2023-03-05T18:11:06.313Z,54.46
2023-03-05T18:13:34.208Z,53.97
2023-03-05T18:16:08.879Z,54.77
2023-03-05T18:18:39.084Z,57.43
2023-03-05T18:21:14.424Z,55.52
2023-03-05T18:23:42.410Z,56.20
2023-03-05T18:26:10.360Z,55.97
2023-03-05T18:28:38.496Z,54.93
2023-03-05T18:31:06.979Z,54.88
2023-03-05T18:33:34.971Z,55.28
2023-03-05T18:36:03.130Z,57.38
2023-03-05T18:38:32.505Z,59.52
2023-03-05T18:41:04.398Z,59.44
2023-03-05T18:43:32.551Z,59.98
2023-03-05T18:46:04.841Z,59.39
2023-03-05T18:48:32.803Z,60.85
2023-03-05T18:51:02.166Z,61.86
2023-03-05T18:53:30.513Z,61.47
2023-03-05T18:55:59.946Z,60.29
2023-03-05T18:58:27.798Z,59.81
2023-03-05T19:00:55.745Z,59.61
2023-03-05T19:03:23.628Z,59.78
2023-03-05T19:05:52.182Z,59.40
2023-03-05T19:08:21.487Z,58.69
2023-03-05T19:10:49.469Z,58.68
2023-03-05T19:13:28.082Z,60.15
2023-03-05T19:15:56.334Z,59.33
2023-03-05T19:18:26.452Z,58.36
2023-03-05T19:20:56.408Z,59.16
2023-03-05T19:23:25.257Z,59.84
2023-03-05T19:25:53.117Z,60.31
2023-03-05T19:28:22.417Z,58.50
2023-03-05T19:30:50.888Z,59.79
2023-03-05T19:33:18.804Z,59.62
2023-03-05T19:35:46.681Z,59.11
2023-03-05T19:38:14.574Z,58.75
2023-03-05T19:40:42.551Z,61.73
2023-03-05T19:43:10.481Z,61.02
2023-03-05T19:45:39.885Z,60.65
2023-03-05T19:48:08.839Z,59.15
2023-03-05T19:50:36.762Z,60.09
2023-03-05T19:53:04.809Z,59.34
2023-03-05T19:55:32.809Z,61.88
2023-03-05T19:58:00.856Z,63.34
2023-03-05T20:00:29.012Z,63.10
2023-03-05T20:02:58.695Z,62.23
2023-03-05T20:05:26.848Z,63.90
2023-03-05T20:07:54.846Z,61.30
2023-03-05T20:10:23.010Z,61.79
2023-03-05T20:12:51.709Z,60.65
2023-03-05T20:15:21.274Z,60.58
2023-03-05T20:17:49.215Z,60.41
2023-03-05T20:20:22.060Z,59.76
2023-03-05T20:22:50.088Z,60.05
2023-03-05T20:25:21.096Z,61.15
2023-03-05T20:27:49.192Z,63.21
2023-03-05T20:30:18.657Z,62.14
2023-03-05T20:32:48.928Z,62.56
2023-03-05T20:35:20.020Z,62.22
2023-03-05T20:38:00.028Z,61.64
2023-03-05T20:40:29.079Z,61.66
2023-03-05T20:42:56.931Z,61.50
2023-03-05T20:45:25.084Z,60.73
2023-03-05T20:47:52.981Z,61.21
2023-03-05T20:50:23.655Z,62.17
2023-03-05T20:52:51.584Z,61.87
2023-03-05T20:55:19.593Z,64.06
2023-03-05T20:57:47.535Z,61.48
2023-03-05T21:00:18.716Z,61.26
2023-03-05T21:02:46.770Z,62.07
2023-03-05T21:05:14.961Z,62.30
2023-03-05T21:07:44.223Z,63.58
2023-03-05T21:10:14.131Z,64.59
2023-03-05T21:12:42.012Z,65.60
2023-03-05T21:15:11.894Z,65.50
2023-03-05T21:17:41.745Z,66.23
2023-03-05T21:20:15.801Z,66.45
2023-03-05T21:22:45.059Z,67.30
2023-03-05T21:25:21.894Z,66.98
2023-03-05T21:27:52.854Z,66.82
2023-03-05T21:30:34.259Z,65.59
2023-03-05T21:33:04.299Z,66.27
2023-03-05T21:35:33.559Z,66.14
2023-03-05T21:38:04.552Z,67.18
2023-03-05T21:40:34.301Z,66.46
2023-03-05T21:43:02.946Z,67.97
2023-03-05T21:45:32.263Z,67.39
2023-03-05T21:48:01.266Z,67.88
2023-03-05T21:50:29.476Z,67.25
2023-03-05T21:52:57.409Z,67.52
2023-03-05T21:55:32.763Z,67.50
2023-03-05T21:58:10.881Z,67.93
2023-03-05T22:00:38.865Z,67.96
2023-03-05T22:03:06.793Z,68.35
2023-03-05T22:05:34.657Z,68.56
2023-03-05T22:08:02.566Z,68.34
2023-03-05T22:10:31.940Z,68.63
2023-03-05T22:13:12.134Z,70.08
2023-03-05T22:15:48.517Z,68.93
2023-03-05T22:18:19.603Z,70.54
2023-03-05T22:20:48.352Z,69.15
2023-03-05T22:23:18.214Z,69.78
2023-03-05T22:25:47.405Z,69.17
2023-03-05T22:28:15.192Z,70.43
2023-03-05T22:30:46.870Z,70.13
2023-03-05T22:33:14.820Z,70.80
2023-03-05T22:35:44.009Z,69.78
2023-03-05T22:38:12.941Z,70.54
2023-03-05T22:40:43.911Z,69.94
2023-03-05T22:43:14.212Z,70.78
2023-03-05T22:45:42.520Z,70.48
2023-03-05T22:48:12.802Z,69.93
2023-03-05T22:50:43.827Z,70.39
2023-03-05T22:53:12.516Z,70.16
2023-03-05T22:55:41.724Z,70.96
2023-03-05T22:58:09.820Z,71.47
2023-03-05T23:00:53.047Z,71.05
2023-03-05T23:03:21.008Z,71.48
2023-03-05T23:05:48.880Z,70.73
2023-03-05T23:08:16.669Z,71.10
2023-03-05T23:10:44.639Z,71.67
2023-03-05T23:13:12.677Z,71.71
2023-03-05T23:15:40.693Z,71.72
2023-03-05T23:18:09.982Z,72.97
2023-03-05T23:20:38.686Z,72.96
2023-03-05T23:23:06.612Z,72.98
2023-03-05T23:25:36.561Z,73.66
2023-03-05T23:28:05.875Z,73.16
2023-03-05T23:30:37.285Z,73.91
2023-03-05T23:33:12.448Z,74.57
2023-03-05T23:35:43.318Z,74.39
2023-03-05T23:38:14.271Z,72.76
2023-03-05T23:40:45.256Z,73.67
2023-03-05T23:43:13.797Z,74.20
2023-03-05T23:45:42.817Z,74.49
2023-03-05T23:48:12.935Z,75.05
2023-03-05T23:50:44.404Z,74.00
2023-03-05T23:53:17.974Z,74.17
2023-03-05T23:55:45.990Z,74.22
2023-03-05T23:58:14.459Z,72.61
